sensor_id;sensor_type;location;lat;lon;timestamp;temperature;humidity
21787;DHT22;11055;50.870;4.316;2023-06-14T00:01:01;25.30;57.60
21787;DHT22;11055;50.870;4.316;2023-06-14T00:03:28;25.10;57.20
21787;DHT22;11055;50.870;4.316;2023-06-14T00:05:54;25.10;57.30
21787;DHT22;11055;50.870;4.316;2023-06-14T00:08:19;25.00;57.10
21787;DHT22;11055;50.870;4.316;2023-06-14T00:10:46;24.80;57.60
21787;DHT22;11055;50.870;4.316;2023-06-14T00:13:12;24.60;57.80
21787;DHT22;11055;50.870;4.316;2023-06-14T00:15:37;24.60;58.20
21787;DHT22;11055;50.870;4.316;2023-06-14T00:18:03;24.60;58.40
21787;DHT22;11055;50.870;4.316;2023-06-14T00:41:39;25.00;57.90
21787;DHT22;11055;50.870;4.316;2023-06-14T00:44:05;25.00;58.00
21787;DHT22;11055;50.870;4.316;2023-06-14T00:46:31;25.00;58.00
21787;DHT22;11055;50.870;4.316;2023-06-14T00:48:57;25.00;58.00
21787;DHT22;11055;50.870;4.316;2023-06-14T00:51:23;24.90;58.10
21787;DHT22;11055;50.870;4.316;2023-06-14T00:53:50;24.90;58.20
21787;DHT22;11055;50.870;4.316;2023-06-14T00:56:16;24.80;57.90
21787;DHT22;11055;50.870;4.316;2023-06-14T00:58:41;24.70;58.10
21787;DHT22;11055;50.870;4.316;2023-06-14T01:01:07;24.60;58.30
21787;DHT22;11055;50.870;4.316;2023-06-14T01:03:33;24.60;58.60
21787;DHT22;11055;50.870;4.316;2023-06-14T01:06:05;24.60;58.80
21787;DHT22;11055;50.870;4.316;2023-06-14T01:08:50;24.60;58.90
21787;DHT22;11055;50.870;4.316;2023-06-14T01:11:22;24.60;58.80
21787;DHT22;11055;50.870;4.316;2023-06-14T01:13:50;24.50;58.90
21787;DHT22;11055;50.870;4.316;2023-06-14T01:16:17;24.50;59.00
21787;DHT22;11055;50.870;4.316;2023-06-14T01:18:43;24.60;58.80
21787;DHT22;11055;50.870;4.316;2023-06-14T01:21:20;24.50;59.30
21787;DHT22;11055;50.870;4.316;2023-06-14T01:23:47;24.50;59.00
21787;DHT22;11055;50.870;4.316;2023-06-14T01:26:24;24.50;59.20
21787;DHT22;11055;50.870;4.316;2023-06-14T01:28:51;24.40;59.00
21787;DHT22;11055;50.870;4.316;2023-06-14T01:31:19;24.30;59.50
21787;DHT22;11055;50.870;4.316;2023-06-14T01:33:47;24.20;59.70
21787;DHT22;11055;50.870;4.316;2023-06-14T01:36:13;24.10;59.70
21787;DHT22;11055;50.870;4.316;2023-06-14T01:38:39;24.10;60.10
21787;DHT22;11055;50.870;4.316;2023-06-14T01:41:06;24.00;60.50
21787;DHT22;11055;50.870;4.316;2023-06-14T01:43:31;24.00;60.50
21787;DHT22;11055;50.870;4.316;2023-06-14T01:45:58;23.90;60.30
21787;DHT22;11055;50.870;4.316;2023-06-14T01:48:25;23.80;60.70
21787;DHT22;11055;50.870;4.316;2023-06-14T01:50:52;23.80;60.90
21787;DHT22;11055;50.870;4.316;2023-06-14T01:53:17;23.80;61.70
21787;DHT22;11055;50.870;4.316;2023-06-14T01:55:43;23.80;61.20
21787;DHT22;11055;50.870;4.316;2023-06-14T01:58:10;23.70;61.50
21787;DHT22;11055;50.870;4.316;2023-06-14T02:00:35;23.60;61.40
21787;DHT22;11055;50.870;4.316;2023-06-14T02:03:01;23.50;62.00
21787;DHT22;11055;50.870;4.316;2023-06-14T02:05:27;23.30;62.60
21787;DHT22;11055;50.870;4.316;2023-06-14T02:07:53;23.10;63.10
21787;DHT22;11055;50.870;4.316;2023-06-14T02:10:18;22.90;63.60
21787;DHT22;11055;50.870;4.316;2023-06-14T02:12:44;22.80;64.30
21787;DHT22;11055;50.870;4.316;2023-06-14T02:15:10;22.80;64.30
21787;DHT22;11055;50.870;4.316;2023-06-14T02:17:47;22.70;64.50
21787;DHT22;11055;50.870;4.316;2023-06-14T02:20:14;22.70;64.60
21787;DHT22;11055;50.870;4.316;2023-06-14T02:22:40;22.80;64.60
21787;DHT22;11055;50.870;4.316;2023-06-14T02:25:05;22.80;64.40
21787;DHT22;11055;50.870;4.316;2023-06-14T02:27:32;22.90;64.40
21787;DHT22;11055;50.870;4.316;2023-06-14T02:29:59;22.80;64.50
21787;DHT22;11055;50.870;4.316;2023-06-14T02:32:24;22.70;65.40
21787;DHT22;11055;50.870;4.316;2023-06-14T02:34:51;22.70;65.00
21787;DHT22;11055;50.870;4.316;2023-06-14T02:37:18;22.70;65.20
21787;DHT22;11055;50.870;4.316;2023-06-14T02:39:44;22.70;65.30
21787;DHT22;11055;50.870;4.316;2023-06-14T02:42:09;22.70;66.10
21787;DHT22;11055;50.870;4.316;2023-06-14T02:44:35;22.80;65.40
21787;DHT22;11055;50.870;4.316;2023-06-14T02:47:01;22.70;65.10
21787;DHT22;11055;50.870;4.316;2023-06-14T02:49:26;22.60;65.60
21787;DHT22;11055;50.870;4.316;2023-06-14T02:51:52;22.40;66.00
21787;DHT22;11055;50.870;4.316;2023-06-14T02:54:17;22.40;66.60
21787;DHT22;11055;50.870;4.316;2023-06-14T02:56:43;22.50;66.50
21787;DHT22;11055;50.870;4.316;2023-06-14T02:59:09;22.60;66.00
21787;DHT22;11055;50.870;4.316;2023-06-14T03:01:34;22.80;65.60
21787;DHT22;11055;50.870;4.316;2023-06-14T03:04:01;22.80;65.30
21787;DHT22;11055;50.870;4.316;2023-06-14T03:06:30;22.90;65.30
21787;DHT22;11055;50.870;4.316;2023-06-14T03:08:56;22.80;65.20
21787;DHT22;11055;50.870;4.316;2023-06-14T03:11:25;22.60;66.00
21787;DHT22;11055;50.870;4.316;2023-06-14T03:13:51;22.30;66.70
21787;DHT22;11055;50.870;4.316;2023-06-14T03:16:17;22.10;67.20
21787;DHT22;11055;50.870;4.316;2023-06-14T03:18:45;22.10;68.00
21787;DHT22;11055;50.870;4.316;2023-06-14T03:21:11;21.90;68.30
21787;DHT22;11055;50.870;4.316;2023-06-14T03:23:36;22.00;68.90
21787;DHT22;11055;50.870;4.316;2023-06-14T03:26:02;21.90;68.40
21787;DHT22;11055;50.870;4.316;2023-06-14T03:28:27;21.90;69.10
21787;DHT22;11055;50.870;4.316;2023-06-14T03:30:53;21.80;69.20
21787;DHT22;11055;50.870;4.316;2023-06-14T03:33:18;21.80;69.40
21787;DHT22;11055;50.870;4.316;2023-06-14T03:35:44;21.80;68.90
21787;DHT22;11055;50.870;4.316;2023-06-14T03:38:10;21.80;69.30
21787;DHT22;11055;50.870;4.316;2023-06-14T03:40:35;21.70;69.50
21787;DHT22;11055;50.870;4.316;2023-06-14T03:43:01;21.70;70.00
21787;DHT22;11055;50.870;4.316;2023-06-14T03:45:27;21.70;69.90
21787;DHT22;11055;50.870;4.316;2023-06-14T03:47:52;21.90;69.70
21787;DHT22;11055;50.870;4.316;2023-06-14T03:50:18;22.00;69.10
21787;DHT22;11055;50.870;4.316;2023-06-14T03:52:44;21.90;69.30
21787;DHT22;11055;50.870;4.316;2023-06-14T03:55:09;21.70;69.60
21787;DHT22;11055;50.870;4.316;2023-06-14T03:57:36;21.60;69.80
21787;DHT22;11055;50.870;4.316;2023-06-14T04:00:02;21.60;70.60
21787;DHT22;11055;50.870;4.316;2023-06-14T04:02:30;21.60;70.60
21787;DHT22;11055;50.870;4.316;2023-06-14T04:04:56;21.60;70.50
21787;DHT22;11055;50.870;4.316;2023-06-14T04:07:21;21.60;70.50
21787;DHT22;11055;50.870;4.316;2023-06-14T04:09:48;21.60;70.50
21787;DHT22;11055;50.870;4.316;2023-06-14T04:12:13;21.50;70.90
21787;DHT22;11055;50.870;4.316;2023-06-14T04:14:39;21.40;71.40
21787;DHT22;11055;50.870;4.316;2023-06-14T04:17:05;21.20;71.90
21787;DHT22;11055;50.870;4.316;2023-06-14T04:19:30;21.20;72.30
21787;DHT22;11055;50.870;4.316;2023-06-14T04:21:56;21.20;72.30
21787;DHT22;11055;50.870;4.316;2023-06-14T04:24:21;21.20;72.70
21787;DHT22;11055;50.870;4.316;2023-06-14T04:26:48;21.30;72.90
21787;DHT22;11055;50.870;4.316;2023-06-14T04:29:14;21.30;72.30
21787;DHT22;11055;50.870;4.316;2023-06-14T04:31:44;21.20;72.10
21787;DHT22;11055;50.870;4.316;2023-06-14T04:34:10;21.20;72.60
21787;DHT22;11055;50.870;4.316;2023-06-14T04:36:42;21.20;72.30
21787;DHT22;11055;50.870;4.316;2023-06-14T04:39:15;21.10;73.00
21787;DHT22;11055;50.870;4.316;2023-06-14T04:41:40;21.10;73.10
21787;DHT22;11055;50.870;4.316;2023-06-14T04:44:06;21.20;74.30
21787;DHT22;11055;50.870;4.316;2023-06-14T04:46:32;21.20;73.30
21787;DHT22;11055;50.870;4.316;2023-06-14T04:48:58;21.20;73.70
21787;DHT22;11055;50.870;4.316;2023-06-14T04:51:27;21.20;73.30
21787;DHT22;11055;50.870;4.316;2023-06-14T04:53:58;21.10;73.90
21787;DHT22;11055;50.870;4.316;2023-06-14T04:56:24;21.00;74.00
21787;DHT22;11055;50.870;4.316;2023-06-14T04:58:50;21.00;74.20
21787;DHT22;11055;50.870;4.316;2023-06-14T05:01:15;20.90;74.20
21787;DHT22;11055;50.870;4.316;2023-06-14T05:03:41;20.90;74.70
21787;DHT22;11055;50.870;4.316;2023-06-14T05:06:10;20.90;75.90
21787;DHT22;11055;50.870;4.316;2023-06-14T05:08:36;20.90;75.20
21787;DHT22;11055;50.870;4.316;2023-06-14T05:11:02;21.00;75.00
21787;DHT22;11055;50.870;4.316;2023-06-14T05:13:27;21.00;75.30
21787;DHT22;11055;50.870;4.316;2023-06-14T05:15:53;21.20;74.80
21787;DHT22;11055;50.870;4.316;2023-06-14T05:18:19;21.20;74.00
21787;DHT22;11055;50.870;4.316;2023-06-14T05:20:45;21.20;74.60
21787;DHT22;11055;50.870;4.316;2023-06-14T05:23:11;21.30;74.40
21787;DHT22;11055;50.870;4.316;2023-06-14T05:25:43;21.50;73.80
21787;DHT22;11055;50.870;4.316;2023-06-14T05:28:09;21.40;73.70
21787;DHT22;11055;50.870;4.316;2023-06-14T05:30:35;21.40;73.40
21787;DHT22;11055;50.870;4.316;2023-06-14T05:33:01;21.30;74.20
21787;DHT22;11055;50.870;4.316;2023-06-14T05:35:26;21.20;74.90
21787;DHT22;11055;50.870;4.316;2023-06-14T05:37:52;21.40;74.70
21787;DHT22;11055;50.870;4.316;2023-06-14T05:40:19;21.50;73.70
21787;DHT22;11055;50.870;4.316;2023-06-14T05:42:45;21.70;74.20
21787;DHT22;11055;50.870;4.316;2023-06-14T05:45:11;21.60;73.50
21787;DHT22;11055;50.870;4.316;2023-06-14T05:47:36;21.70;73.40
21787;DHT22;11055;50.870;4.316;2023-06-14T05:50:02;21.80;73.30
21787;DHT22;11055;50.870;4.316;2023-06-14T05:52:28;21.80;73.00
21787;DHT22;11055;50.870;4.316;2023-06-14T05:54:54;21.80;73.50
21787;DHT22;11055;50.870;4.316;2023-06-14T05:57:20;21.90;74.20
21787;DHT22;11055;50.870;4.316;2023-06-14T05:59:46;21.90;73.70
21787;DHT22;11055;50.870;4.316;2023-06-14T06:02:12;21.90;73.40
21787;DHT22;11055;50.870;4.316;2023-06-14T06:04:37;21.90;73.20
21787;DHT22;11055;50.870;4.316;2023-06-14T06:07:03;22.00;73.40
21787;DHT22;11055;50.870;4.316;2023-06-14T06:09:29;22.00;73.60
21787;DHT22;11055;50.870;4.316;2023-06-14T06:11:55;22.00;73.50
21787;DHT22;11055;50.870;4.316;2023-06-14T06:14:20;22.10;73.30
21787;DHT22;11055;50.870;4.316;2023-06-14T06:16:46;22.10;73.90
21787;DHT22;11055;50.870;4.316;2023-06-14T06:19:12;22.10;75.80
21787;DHT22;11055;50.870;4.316;2023-06-14T06:21:37;22.10;73.90
21787;DHT22;11055;50.870;4.316;2023-06-14T06:24:04;22.10;73.50
21787;DHT22;11055;50.870;4.316;2023-06-14T06:26:31;22.20;71.90
21787;DHT22;11055;50.870;4.316;2023-06-14T06:28:56;22.20;72.60
21787;DHT22;11055;50.870;4.316;2023-06-14T06:31:22;22.30;72.50
21787;DHT22;11055;50.870;4.316;2023-06-14T06:33:48;22.30;72.40
21787;DHT22;11055;50.870;4.316;2023-06-14T06:36:13;22.30;71.80
21787;DHT22;11055;50.870;4.316;2023-06-14T06:38:39;22.50;72.00
21787;DHT22;11055;50.870;4.316;2023-06-14T06:41:04;22.50;73.70
21787;DHT22;11055;50.870;4.316;2023-06-14T06:43:30;22.40;72.00
21787;DHT22;11055;50.870;4.316;2023-06-14T06:45:55;22.50;71.90
21787;DHT22;11055;50.870;4.316;2023-06-14T06:48:21;22.70;71.60
21787;DHT22;11055;50.870;4.316;2023-06-14T06:50:46;22.80;71.10
21787;DHT22;11055;50.870;4.316;2023-06-14T06:53:12;22.80;71.40
21787;DHT22;11055;50.870;4.316;2023-06-14T06:55:37;22.80;70.60
21787;DHT22;11055;50.870;4.316;2023-06-14T06:58:03;23.00;70.60
21787;DHT22;11055;50.870;4.316;2023-06-14T07:00:30;23.10;69.40
21787;DHT22;11055;50.870;4.316;2023-06-14T07:02:56;23.30;69.00
21787;DHT22;11055;50.870;4.316;2023-06-14T07:05:22;23.20;69.10
21787;DHT22;11055;50.870;4.316;2023-06-14T07:07:48;23.20;69.20
21787;DHT22;11055;50.870;4.316;2023-06-14T07:10:13;23.30;71.80
21787;DHT22;11055;50.870;4.316;2023-06-14T07:12:39;23.20;68.50
21787;DHT22;11055;50.870;4.316;2023-06-14T07:15:08;23.40;69.10
21787;DHT22;11055;50.870;4.316;2023-06-14T07:17:34;23.40;68.80
21787;DHT22;11055;50.870;4.316;2023-06-14T07:19:59;23.40;69.90
21787;DHT22;11055;50.870;4.316;2023-06-14T07:22:26;23.60;69.90
21787;DHT22;11055;50.870;4.316;2023-06-14T07:24:51;23.70;68.30
21787;DHT22;11055;50.870;4.316;2023-06-14T07:27:17;23.80;68.40
21787;DHT22;11055;50.870;4.316;2023-06-14T07:29:42;24.00;68.60
21787;DHT22;11055;50.870;4.316;2023-06-14T07:32:08;24.00;68.30
21787;DHT22;11055;50.870;4.316;2023-06-14T07:34:33;24.10;68.40
21787;DHT22;11055;50.870;4.316;2023-06-14T07:36:59;24.30;68.40
21787;DHT22;11055;50.870;4.316;2023-06-14T07:39:24;24.50;67.30
21787;DHT22;11055;50.870;4.316;2023-06-14T07:41:50;24.60;65.40
21787;DHT22;11055;50.870;4.316;2023-06-14T07:44:16;24.60;65.10
21787;DHT22;11055;50.870;4.316;2023-06-14T07:46:41;24.70;66.30
21787;DHT22;11055;50.870;4.316;2023-06-14T07:49:07;24.60;64.80
21787;DHT22;11055;50.870;4.316;2023-06-14T07:51:32;24.70;65.00
21787;DHT22;11055;50.870;4.316;2023-06-14T07:53:59;24.90;65.20
21787;DHT22;11055;50.870;4.316;2023-06-14T07:56:26;25.10;66.00
21787;DHT22;11055;50.870;4.316;2023-06-14T07:58:51;25.30;64.20
21787;DHT22;11055;50.870;4.316;2023-06-14T08:01:17;25.40;63.60
21787;DHT22;11055;50.870;4.316;2023-06-14T08:03:44;25.50;62.40
21787;DHT22;11055;50.870;4.316;2023-06-14T08:06:10;25.60;62.40
21787;DHT22;11055;50.870;4.316;2023-06-14T08:08:36;25.80;62.30
21787;DHT22;11055;50.870;4.316;2023-06-14T08:11:01;25.90;63.10
21787;DHT22;11055;50.870;4.316;2023-06-14T08:13:27;26.00;63.60
21787;DHT22;11055;50.870;4.316;2023-06-14T08:15:52;26.00;64.50
21787;DHT22;11055;50.870;4.316;2023-06-14T08:18:18;26.10;62.20
21787;DHT22;11055;50.870;4.316;2023-06-14T08:20:44;26.10;62.70
21787;DHT22;11055;50.870;4.316;2023-06-14T08:23:09;26.20;63.00
21787;DHT22;11055;50.870;4.316;2023-06-14T08:25:35;26.20;61.90
21787;DHT22;11055;50.870;4.316;2023-06-14T08:28:00;26.20;64.30
21787;DHT22;11055;50.870;4.316;2023-06-14T08:30:26;26.10;63.20
21787;DHT22;11055;50.870;4.316;2023-06-14T08:32:51;26.30;62.20
21787;DHT22;11055;50.870;4.316;2023-06-14T08:35:17;26.40;61.30
21787;DHT22;11055;50.870;4.316;2023-06-14T08:37:43;26.60;59.80
21787;DHT22;11055;50.870;4.316;2023-06-14T08:40:19;26.70;59.10
21787;DHT22;11055;50.870;4.316;2023-06-14T08:42:47;26.80;59.40
21787;DHT22;11055;50.870;4.316;2023-06-14T08:45:12;26.80;59.50
21787;DHT22;11055;50.870;4.316;2023-06-14T08:47:38;26.80;61.00
21787;DHT22;11055;50.870;4.316;2023-06-14T08:50:05;26.90;59.50
21787;DHT22;11055;50.870;4.316;2023-06-14T08:52:32;26.90;61.30
21787;DHT22;11055;50.870;4.316;2023-06-14T08:54:59;27.00;59.90
21787;DHT22;11055;50.870;4.316;2023-06-14T08:57:26;27.00;59.40
21787;DHT22;11055;50.870;4.316;2023-06-14T08:59:55;26.80;59.10
21787;DHT22;11055;50.870;4.316;2023-06-14T09:02:22;26.70;60.00
21787;DHT22;11055;50.870;4.316;2023-06-14T09:04:47;26.70;60.70
21787;DHT22;11055;50.870;4.316;2023-06-14T09:07:15;26.80;61.50
21787;DHT22;11055;50.870;4.316;2023-06-14T09:09:40;27.00;63.20
21787;DHT22;11055;50.870;4.316;2023-06-14T09:12:10;27.10;62.80
21787;DHT22;11055;50.870;4.316;2023-06-14T09:14:36;26.90;62.70
21787;DHT22;11055;50.870;4.316;2023-06-14T09:17:04;27.00;61.80
21787;DHT22;11055;50.870;4.316;2023-06-14T09:19:30;27.00;62.60
21787;DHT22;11055;50.870;4.316;2023-06-14T09:21:55;27.10;62.10
21787;DHT22;11055;50.870;4.316;2023-06-14T09:24:21;27.30;61.80
21787;DHT22;11055;50.870;4.316;2023-06-14T09:26:50;27.20;59.90
21787;DHT22;11055;50.870;4.316;2023-06-14T09:29:16;27.20;59.80
21787;DHT22;11055;50.870;4.316;2023-06-14T09:31:42;27.20;59.70
21787;DHT22;11055;50.870;4.316;2023-06-14T09:34:07;27.20;60.40
21787;DHT22;11055;50.870;4.316;2023-06-14T09:36:34;27.40;59.30
21787;DHT22;11055;50.870;4.316;2023-06-14T09:39:00;27.30;60.40
21787;DHT22;11055;50.870;4.316;2023-06-14T09:41:30;27.40;61.10
21787;DHT22;11055;50.870;4.316;2023-06-14T09:43:57;27.30;60.00
21787;DHT22;11055;50.870;4.316;2023-06-14T09:46:29;27.40;59.90
21787;DHT22;11055;50.870;4.316;2023-06-14T09:48:55;27.60;59.60
21787;DHT22;11055;50.870;4.316;2023-06-14T09:51:22;27.60;59.90
21787;DHT22;11055;50.870;4.316;2023-06-14T09:53:48;27.70;59.60
21787;DHT22;11055;50.870;4.316;2023-06-14T09:56:15;27.70;58.30
21787;DHT22;11055;50.870;4.316;2023-06-14T09:58:43;27.50;58.30
21787;DHT22;11055;50.870;4.316;2023-06-14T10:01:08;27.50;61.50
21787;DHT22;11055;50.870;4.316;2023-06-14T10:03:34;27.80;58.60
21787;DHT22;11055;50.870;4.316;2023-06-14T10:05:59;27.90;58.20
21787;DHT22;11055;50.870;4.316;2023-06-14T10:08:27;28.20;57.10
21787;DHT22;11055;50.870;4.316;2023-06-14T10:10:56;28.20;57.40
21787;DHT22;11055;50.870;4.316;2023-06-14T10:13:22;28.30;56.10
21787;DHT22;11055;50.870;4.316;2023-06-14T10:20:58;28.40;56.10
21787;DHT22;11055;50.870;4.316;2023-06-14T10:23:25;28.60;58.50
21787;DHT22;11055;50.870;4.316;2023-06-14T10:25:56;28.60;55.90
21787;DHT22;11055;50.870;4.316;2023-06-14T10:28:22;28.70;54.60
21787;DHT22;11055;50.870;4.316;2023-06-14T10:31:05;28.70;53.10
21787;DHT22;11055;50.870;4.316;2023-06-14T10:33:36;28.60;53.30
21787;DHT22;11055;50.870;4.316;2023-06-14T10:38:42;28.90;56.50
21787;DHT22;11055;50.870;4.316;2023-06-14T10:41:08;29.00;55.00
21787;DHT22;11055;50.870;4.316;2023-06-14T10:43:35;29.00;52.20
21787;DHT22;11055;50.870;4.316;2023-06-14T10:48:41;28.80;53.40
21787;DHT22;11055;50.870;4.316;2023-06-14T10:51:17;28.90;52.80
21787;DHT22;11055;50.870;4.316;2023-06-14T10:53:47;29.10;51.40
21787;DHT22;11055;50.870;4.316;2023-06-14T10:56:23;29.20;50.60
21787;DHT22;11055;50.870;4.316;2023-06-14T10:58:49;29.20;51.60
21787;DHT22;11055;50.870;4.316;2023-06-14T11:01:16;29.10;50.80
21787;DHT22;11055;50.870;4.316;2023-06-14T11:03:45;29.10;49.90
21787;DHT22;11055;50.870;4.316;2023-06-14T11:06:15;29.00;50.60
21787;DHT22;11055;50.870;4.316;2023-06-14T11:08:59;29.10;50.30
21787;DHT22;11055;50.870;4.316;2023-06-14T11:11:32;29.20;52.10
21787;DHT22;11055;50.870;4.316;2023-06-14T11:14:00;29.30;52.80
21787;DHT22;11055;50.870;4.316;2023-06-14T11:16:27;29.40;50.90
21787;DHT22;11055;50.870;4.316;2023-06-14T11:18:54;29.60;50.50
21787;DHT22;11055;50.870;4.316;2023-06-14T11:21:20;29.60;51.60
21787;DHT22;11055;50.870;4.316;2023-06-14T11:23:52;29.80;51.00
21787;DHT22;11055;50.870;4.316;2023-06-14T11:26:29;30.00;49.80
21787;DHT22;11055;50.870;4.316;2023-06-14T11:28:58;30.00;48.60
21787;DHT22;11055;50.870;4.316;2023-06-14T11:31:24;29.90;48.30
21787;DHT22;11055;50.870;4.316;2023-06-14T11:33:55;29.70;47.20
21787;DHT22;11055;50.870;4.316;2023-06-14T11:36:22;29.70;48.00
21787;DHT22;11055;50.870;4.316;2023-06-14T11:38:48;29.70;48.90
21787;DHT22;11055;50.870;4.316;2023-06-14T11:41:13;29.80;48.10
21787;DHT22;11055;50.870;4.316;2023-06-14T11:43:39;29.70;49.40
21787;DHT22;11055;50.870;4.316;2023-06-14T11:46:11;30.00;49.60
21787;DHT22;11055;50.870;4.316;2023-06-14T11:48:38;30.20;48.70
21787;DHT22;11055;50.870;4.316;2023-06-14T11:51:04;30.40;48.90
21787;DHT22;11055;50.870;4.316;2023-06-14T11:53:30;30.50;48.50
21787;DHT22;11055;50.870;4.316;2023-06-14T11:55:56;30.60;50.90
21787;DHT22;11055;50.870;4.316;2023-06-14T11:58:22;30.60;47.00
21787;DHT22;11055;50.870;4.316;2023-06-14T12:00:51;29.60;48.00
21787;DHT22;11055;50.870;4.316;2023-06-14T12:03:17;29.60;49.90
21787;DHT22;11055;50.870;4.316;2023-06-14T12:05:42;29.70;49.40
21787;DHT22;11055;50.870;4.316;2023-06-14T12:08:09;29.80;48.30
21787;DHT22;11055;50.870;4.316;2023-06-14T12:10:40;29.90;48.10
21787;DHT22;11055;50.870;4.316;2023-06-14T12:13:09;30.20;47.20
21787;DHT22;11055;50.870;4.316;2023-06-14T12:15:35;30.30;47.10
21787;DHT22;11055;50.870;4.316;2023-06-14T12:18:00;30.30;46.60
21787;DHT22;11055;50.870;4.316;2023-06-14T12:20:29;30.30;47.00
21787;DHT22;11055;50.870;4.316;2023-06-14T12:22:56;30.60;46.60
21787;DHT22;11055;50.870;4.316;2023-06-14T12:25:35;30.60;47.50
21787;DHT22;11055;50.870;4.316;2023-06-14T12:28:07;30.60;48.90
21787;DHT22;11055;50.870;4.316;2023-06-14T12:30:33;30.60;50.10
21787;DHT22;11055;50.870;4.316;2023-06-14T12:32:59;30.40;46.20
21787;DHT22;11055;50.870;4.316;2023-06-14T12:35:25;30.40;48.90
21787;DHT22;11055;50.870;4.316;2023-06-14T12:37:51;30.40;47.20
21787;DHT22;11055;50.870;4.316;2023-06-14T12:40:16;30.40;46.40
21787;DHT22;11055;50.870;4.316;2023-06-14T12:42:44;30.30;48.10
21787;DHT22;11055;50.870;4.316;2023-06-14T12:45:13;30.30;47.30
21787;DHT22;11055;50.870;4.316;2023-06-14T12:47:38;29.90;46.70
21787;DHT22;11055;50.870;4.316;2023-06-14T12:50:04;29.90;47.70
21787;DHT22;11055;50.870;4.316;2023-06-14T12:52:30;30.00;49.40
21787;DHT22;11055;50.870;4.316;2023-06-14T12:54:55;30.00;47.40
21787;DHT22;11055;50.870;4.316;2023-06-14T12:57:21;29.70;46.50
21787;DHT22;11055;50.870;4.316;2023-06-14T12:59:47;29.60;47.10
21787;DHT22;11055;50.870;4.316;2023-06-14T13:02:16;29.60;49.60
21787;DHT22;11055;50.870;4.316;2023-06-14T13:04:42;29.60;47.50
21787;DHT22;11055;50.870;4.316;2023-06-14T13:07:08;29.50;48.80
21787;DHT22;11055;50.870;4.316;2023-06-14T13:09:36;29.30;47.40
21787;DHT22;11055;50.870;4.316;2023-06-14T13:12:01;29.20;48.40
21787;DHT22;11055;50.870;4.316;2023-06-14T13:14:27;29.20;47.90
21787;DHT22;11055;50.870;4.316;2023-06-14T13:16:52;29.40;48.10
21787;DHT22;11055;50.870;4.316;2023-06-14T13:19:18;29.50;47.30
21787;DHT22;11055;50.870;4.316;2023-06-14T13:21:43;29.50;48.60
21787;DHT22;11055;50.870;4.316;2023-06-14T13:24:09;29.60;47.40
21787;DHT22;11055;50.870;4.316;2023-06-14T13:26:35;29.50;46.70
21787;DHT22;11055;50.870;4.316;2023-06-14T13:29:01;29.40;48.00
21787;DHT22;11055;50.870;4.316;2023-06-14T13:31:27;29.30;47.50
21787;DHT22;11055;50.870;4.316;2023-06-14T13:33:52;29.20;48.50
21787;DHT22;11055;50.870;4.316;2023-06-14T13:36:18;29.20;48.30
21787;DHT22;11055;50.870;4.316;2023-06-14T13:38:43;29.00;48.60
21787;DHT22;11055;50.870;4.316;2023-06-14T13:41:09;29.10;48.30
21787;DHT22;11055;50.870;4.316;2023-06-14T13:43:34;29.20;47.90
21787;DHT22;11055;50.870;4.316;2023-06-14T13:46:00;29.30;46.90
21787;DHT22;11055;50.870;4.316;2023-06-14T13:48:25;29.30;46.60
21787;DHT22;11055;50.870;4.316;2023-06-14T13:50:51;29.30;46.70
21787;DHT22;11055;50.870;4.316;2023-06-14T13:53:17;29.30;46.20
21787;DHT22;11055;50.870;4.316;2023-06-14T13:55:42;29.30;46.80
21787;DHT22;11055;50.870;4.316;2023-06-14T13:58:08;29.20;47.70
21787;DHT22;11055;50.870;4.316;2023-06-14T14:00:33;29.00;47.30
21787;DHT22;11055;50.870;4.316;2023-06-14T14:02:59;28.70;48.10
21787;DHT22;11055;50.870;4.316;2023-06-14T14:05:25;28.60;48.60
21787;DHT22;11055;50.870;4.316;2023-06-14T14:07:55;28.60;47.50
21787;DHT22;11055;50.870;4.316;2023-06-14T14:10:20;28.40;46.50
21787;DHT22;11055;50.870;4.316;2023-06-14T14:12:46;28.40;47.40
21787;DHT22;11055;50.870;4.316;2023-06-14T14:15:11;28.50;47.10
21787;DHT22;11055;50.870;4.316;2023-06-14T14:17:40;28.40;46.70
21787;DHT22;11055;50.870;4.316;2023-06-14T14:20:06;28.50;47.10
21787;DHT22;11055;50.870;4.316;2023-06-14T14:22:32;28.60;47.10
21787;DHT22;11055;50.870;4.316;2023-06-14T14:24:57;28.60;47.00
21787;DHT22;11055;50.870;4.316;2023-06-14T14:27:23;28.50;45.50
21787;DHT22;11055;50.870;4.316;2023-06-14T14:29:49;28.50;45.90
21787;DHT22;11055;50.870;4.316;2023-06-14T14:32:14;28.40;47.20
21787;DHT22;11055;50.870;4.316;2023-06-14T14:34:40;28.60;47.00
21787;DHT22;11055;50.870;4.316;2023-06-14T14:37:06;28.60;46.90
21787;DHT22;11055;50.870;4.316;2023-06-14T14:39:31;28.40;47.30
21787;DHT22;11055;50.870;4.316;2023-06-14T14:41:57;28.40;46.50
21787;DHT22;11055;50.870;4.316;2023-06-14T14:44:22;28.30;46.50
21787;DHT22;11055;50.870;4.316;2023-06-14T14:46:48;28.10;46.50
21787;DHT22;11055;50.870;4.316;2023-06-14T14:49:13;28.10;45.20
21787;DHT22;11055;50.870;4.316;2023-06-14T14:51:39;28.10;44.80
21787;DHT22;11055;50.870;4.316;2023-06-14T14:54:05;28.20;46.80
21787;DHT22;11055;50.870;4.316;2023-06-14T14:56:31;28.10;45.40
21787;DHT22;11055;50.870;4.316;2023-06-14T14:58:57;28.10;46.40
21787;DHT22;11055;50.870;4.316;2023-06-14T15:01:22;28.10;48.10
21787;DHT22;11055;50.870;4.316;2023-06-14T15:03:48;28.30;46.10
21787;DHT22;11055;50.870;4.316;2023-06-14T15:06:13;28.40;46.90
21787;DHT22;11055;50.870;4.316;2023-06-14T15:08:39;28.40;44.50
21787;DHT22;11055;50.870;4.316;2023-06-14T15:11:06;28.40;44.50
21787;DHT22;11055;50.870;4.316;2023-06-14T15:13:31;28.30;44.10
21787;DHT22;11055;50.870;4.316;2023-06-14T15:15:57;28.20;46.10
21787;DHT22;11055;50.870;4.316;2023-06-14T15:18:23;28.00;46.60
21787;DHT22;11055;50.870;4.316;2023-06-14T15:20:48;27.80;47.20
21787;DHT22;11055;50.870;4.316;2023-06-14T15:23:15;27.90;45.70
21787;DHT22;11055;50.870;4.316;2023-06-14T15:25:45;28.00;45.00
21787;DHT22;11055;50.870;4.316;2023-06-14T15:28:10;28.10;45.40
21787;DHT22;11055;50.870;4.316;2023-06-14T15:30:36;28.30;45.70
21787;DHT22;11055;50.870;4.316;2023-06-14T15:33:01;28.30;45.30
21787;DHT22;11055;50.870;4.316;2023-06-14T15:35:27;28.20;44.30
21787;DHT22;11055;50.870;4.316;2023-06-14T15:37:52;28.10;44.20
21787;DHT22;11055;50.870;4.316;2023-06-14T15:40:18;27.90;44.40
21787;DHT22;11055;50.870;4.316;2023-06-14T15:42:44;27.90;45.70
21787;DHT22;11055;50.870;4.316;2023-06-14T15:45:10;27.90;46.10
21787;DHT22;11055;50.870;4.316;2023-06-14T15:47:35;27.90;46.30
21787;DHT22;11055;50.870;4.316;2023-06-14T15:50:01;28.00;45.80
21787;DHT22;11055;50.870;4.316;2023-06-14T15:52:26;28.10;46.90
21787;DHT22;11055;50.870;4.316;2023-06-14T15:54:52;28.10;45.70
21787;DHT22;11055;50.870;4.316;2023-06-14T15:57:18;28.30;46.20